createdAt,value
2018-09-10T00:01:34.822Z,15.40
2018-09-10T00:04:03.288Z,15.30
2018-09-10T00:06:31.786Z,15.30
2018-09-10T00:09:00.240Z,15.30
2018-09-10T00:11:28.716Z,15.20
2018-09-10T00:13:57.212Z,15.20
2018-09-10T00:16:25.692Z,15.10
2018-09-10T00:18:54.181Z,15.10
2018-09-10T00:21:22.656Z,15.10
2018-09-10T00:23:51.121Z,15.00
2018-09-10T00:26:20.708Z,15.00
2018-09-10T00:28:49.183Z,14.90
2018-09-10T00:31:17.642Z,14.90
2018-09-10T00:33:46.135Z,14.90
2018-09-10T00:36:14.601Z,14.80
2018-09-10T00:38:43.086Z,14.80
2018-09-10T00:41:11.544Z,14.80
2018-09-10T00:43:40.012Z,14.80
2018-09-10T00:46:08.551Z,14.80
2018-09-10T00:48:37.056Z,14.70
2018-09-10T00:51:05.522Z,14.70
2018-09-10T00:53:34.070Z,14.70
2018-09-10T00:56:02.527Z,14.60
2018-09-10T00:58:31.028Z,14.60
2018-09-10T01:00:59.500Z,14.60
2018-09-10T01:03:27.968Z,14.60
2018-09-10T01:05:56.472Z,14.50
2018-09-10T01:08:25.183Z,14.50
2018-09-10T01:10:53.740Z,14.50
2018-09-10T01:13:22.260Z,14.50
2018-09-10T01:15:50.740Z,14.50
2018-09-10T01:18:19.230Z,14.40
2018-09-10T01:20:47.691Z,14.40
2018-09-10T01:23:16.167Z,14.40
2018-09-10T01:25:44.637Z,14.40
2018-09-10T01:28:13.140Z,14.40
2018-09-10T01:30:41.608Z,14.40
2018-09-10T01:33:14.300Z,14.30
2018-09-10T01:35:42.828Z,14.30
2018-09-10T01:38:11.308Z,14.30
2018-09-10T01:40:39.757Z,14.30
2018-09-10T01:43:08.229Z,14.30
2018-09-10T01:45:36.675Z,14.30
2018-09-10T01:48:05.220Z,14.20
2018-09-10T01:50:33.724Z,14.20
2018-09-10T01:53:02.256Z,14.20
2018-09-10T01:55:30.754Z,14.20
2018-09-10T01:57:59.224Z,14.20
2018-09-10T02:00:27.676Z,14.10
2018-09-10T02:02:56.120Z,14.10
2018-09-10T02:05:24.655Z,14.10
2018-09-10T02:07:53.173Z,14.00
2018-09-10T02:10:21.660Z,13.90
2018-09-10T02:12:50.105Z,13.90
2018-09-10T02:15:18.584Z,13.90
2018-09-10T02:17:47.079Z,13.80
2018-09-10T02:20:15.619Z,13.80
2018-09-10T02:22:44.080Z,13.80
2018-09-10T02:25:12.567Z,13.70
2018-09-10T02:27:41.039Z,13.70
2018-09-10T02:30:09.529Z,13.60
2018-09-10T02:32:38.008Z,13.60
2018-09-10T02:35:06.536Z,13.60
2018-09-10T02:37:35.005Z,13.60
2018-09-10T02:40:03.533Z,13.50
2018-09-10T02:42:32.016Z,13.50
2018-09-10T02:45:00.496Z,13.50
2018-09-10T02:47:28.996Z,13.40
2018-09-10T02:49:58.304Z,13.40
2018-09-10T02:52:26.899Z,13.40
2018-09-10T02:54:55.386Z,13.40
2018-09-10T02:57:23.909Z,13.30
2018-09-10T02:59:52.424Z,13.30
2018-09-10T03:02:20.938Z,13.30
2018-09-10T03:04:49.427Z,13.20
2018-09-10T03:07:17.948Z,13.20
2018-09-10T03:09:46.430Z,13.20
2018-09-10T03:12:14.952Z,13.20
2018-09-10T03:14:43.443Z,13.20
2018-09-10T03:17:11.952Z,13.20
2018-09-10T03:19:40.496Z,13.10
2018-09-10T03:22:08.994Z,13.10
2018-09-10T03:24:37.520Z,13.10
2018-09-10T03:27:06.016Z,13.10
2018-09-10T03:29:34.504Z,13.10
2018-09-10T03:32:02.997Z,13.00
2018-09-10T03:34:31.514Z,13.00
2018-09-10T03:37:00.009Z,13.00
2018-09-10T03:39:28.529Z,13.00
2018-09-10T03:41:57.023Z,13.00
2018-09-10T03:44:25.550Z,13.00
2018-09-10T03:46:54.038Z,13.00
2018-09-10T03:49:22.567Z,12.90
2018-09-10T03:51:51.117Z,12.90
2018-09-10T03:54:19.626Z,12.90
2018-09-10T03:56:48.128Z,12.80
2018-09-10T03:59:16.629Z,12.80
2018-09-10T04:01:45.112Z,12.80
2018-09-10T04:04:13.625Z,12.80
2018-09-10T04:06:42.560Z,12.80
2018-09-10T04:09:11.065Z,12.70
2018-09-10T04:11:39.542Z,12.70
2018-09-10T04:14:08.053Z,12.70
2018-09-10T04:16:36.537Z,12.70
2018-09-10T04:19:05.148Z,12.70
2018-09-10T04:21:33.641Z,12.70
2018-09-10T04:24:02.149Z,12.70
2018-09-10T04:26:30.623Z,12.70
2018-09-10T04:28:59.157Z,12.60
2018-09-10T04:31:27.645Z,12.60
2018-09-10T04:33:56.448Z,12.60
2018-09-10T04:36:24.937Z,12.60
2018-09-10T04:38:53.457Z,12.60
2018-09-10T04:41:21.953Z,12.60
2018-09-10T04:43:50.470Z,12.50
2018-09-10T04:46:18.987Z,12.50
2018-09-10T04:48:47.497Z,12.40
2018-09-10T04:51:15.985Z,12.40
2018-09-10T04:53:44.497Z,12.40
2018-09-10T04:56:12.973Z,12.30
2018-09-10T04:58:41.461Z,12.30
2018-09-10T05:01:10.021Z,12.10
2018-09-10T05:03:38.577Z,12.10
2018-09-10T05:06:07.090Z,11.90
2018-09-10T05:08:35.565Z,11.90
2018-09-10T05:11:04.093Z,11.90
2018-09-10T05:13:32.570Z,11.90
2018-09-10T05:16:01.086Z,11.90
2018-09-10T05:18:29.568Z,12.00
2018-09-10T05:20:58.096Z,12.00
2018-09-10T05:23:26.608Z,12.00
2018-09-10T05:25:55.137Z,12.00
2018-09-10T05:28:23.641Z,12.10
2018-09-10T05:30:52.157Z,12.10
2018-09-10T05:33:20.693Z,12.20
2018-09-10T05:35:49.192Z,12.20
2018-09-10T05:38:17.711Z,12.20
2018-09-10T05:40:46.212Z,12.20
2018-09-10T05:43:14.729Z,12.20
2018-09-10T05:45:43.704Z,12.20
2018-09-10T05:48:12.384Z,12.20
2018-09-10T05:50:40.917Z,12.10
2018-09-10T05:53:09.489Z,12.20
2018-09-10T05:55:38.018Z,12.20
2018-09-10T05:58:06.473Z,12.20
2018-09-10T06:00:34.964Z,12.20
2018-09-10T06:03:03.558Z,12.30
2018-09-10T06:05:32.126Z,12.40
2018-09-10T06:08:00.645Z,12.40
2018-09-10T06:10:29.230Z,12.40
2018-09-10T06:12:57.709Z,12.40
2018-09-10T06:15:26.188Z,12.40
2018-09-10T06:17:54.705Z,12.50
2018-09-10T06:20:23.205Z,12.60
2018-09-10T06:22:51.716Z,12.60
2018-09-10T06:25:20.216Z,12.60
2018-09-10T06:27:48.769Z,12.70
2018-09-10T06:30:17.315Z,12.70
2018-09-10T06:32:45.805Z,12.70
2018-09-10T06:35:14.309Z,12.80
2018-09-10T06:37:43.808Z,12.80
2018-09-10T06:40:12.336Z,12.90
2018-09-10T06:42:40.820Z,13.00
2018-09-10T06:45:09.357Z,13.10
2018-09-10T06:47:37.889Z,13.10
2018-09-10T06:50:06.520Z,13.30
2018-09-10T06:52:35.381Z,13.40
2018-09-10T06:55:04.423Z,13.50
2018-09-10T06:57:32.913Z,13.50
2018-09-10T07:00:02.473Z,13.60
2018-09-10T07:02:31.910Z,13.70
2018-09-10T07:05:00.451Z,13.80
2018-09-10T07:07:28.957Z,13.90
2018-09-10T07:09:58.138Z,13.90
2018-09-10T07:12:26.713Z,14.00
2018-09-10T07:14:55.609Z,14.10
2018-09-10T07:17:24.121Z,14.20
2018-09-10T07:19:53.078Z,14.30
2018-09-10T07:22:21.630Z,14.30
2018-09-10T07:24:50.145Z,14.40
2018-09-10T07:27:18.669Z,14.50
2018-09-10T07:29:47.921Z,14.60
2018-09-10T07:32:16.470Z,14.70
2018-09-10T07:34:44.994Z,14.80
2018-09-10T07:37:13.753Z,14.90
2018-09-10T07:39:42.292Z,15.00
2018-09-10T07:42:10.781Z,15.00
2018-09-10T07:44:39.509Z,15.10
2018-09-10T07:47:08.140Z,15.30
2018-09-10T07:49:36.693Z,15.40
2018-09-10T07:52:05.282Z,15.60
2018-09-10T07:54:33.858Z,15.70
2018-09-10T07:57:02.357Z,15.90
2018-09-10T07:59:30.869Z,16.00
2018-09-10T08:01:59.405Z,16.20
2018-09-10T08:04:27.917Z,16.30
2018-09-10T08:06:56.460Z,16.40
2018-09-10T08:09:25.016Z,16.60
2018-09-10T08:11:53.481Z,16.70
2018-09-10T08:14:22.024Z,16.80
2018-09-10T08:16:50.563Z,16.90
2018-09-10T08:19:19.085Z,17.00
2018-09-10T08:21:51.502Z,17.20
2018-09-10T08:24:20.116Z,17.30
2018-09-10T08:26:48.561Z,17.40
2018-09-10T08:29:17.093Z,17.60
2018-09-10T08:31:45.585Z,17.70
2018-09-10T08:34:14.101Z,17.90
2018-09-10T08:36:42.616Z,18.10
2018-09-10T08:39:11.133Z,18.40
2018-09-10T08:41:39.612Z,18.60
2018-09-10T08:44:08.138Z,18.80
2018-09-10T08:46:36.641Z,19.00
2018-09-10T08:49:05.253Z,19.20
2018-09-10T08:51:33.758Z,19.40
2018-09-10T08:54:02.367Z,19.60
2018-09-10T08:56:30.773Z,19.80
2018-09-10T08:58:59.353Z,20.00
2018-09-10T09:01:27.837Z,20.20
2018-09-10T09:03:56.357Z,20.50
2018-09-10T09:06:25.000Z,20.70
2018-09-10T09:08:53.445Z,20.90
2018-09-10T09:11:21.976Z,21.10
2018-09-10T09:13:50.640Z,21.30
2018-09-10T09:16:19.157Z,21.50
2018-09-10T09:18:47.651Z,21.70
2018-09-10T09:21:16.226Z,22.00
2018-09-10T09:23:44.745Z,22.30
2018-09-10T09:26:13.376Z,22.60
2018-09-10T09:28:42.006Z,22.90
2018-09-10T09:31:10.613Z,23.30
2018-09-10T09:33:39.147Z,23.80
2018-09-10T09:36:12.874Z,24.30
2018-09-10T09:38:46.834Z,25.40
2018-09-10T09:41:20.569Z,26.80
2018-09-10T09:43:54.361Z,27.40
2018-09-10T09:46:22.993Z,28.60
2018-09-10T09:48:51.477Z,29.50
2018-09-10T09:51:20.047Z,30.30
2018-09-10T09:53:48.500Z,31.10
2018-09-10T09:56:16.998Z,31.60
2018-09-10T09:58:45.528Z,31.60
2018-09-10T10:01:19.536Z,31.70
2018-09-10T10:03:55.124Z,31.00
2018-09-10T10:06:24.283Z,30.70
2018-09-10T10:08:53.013Z,30.40
2018-09-10T10:11:21.577Z,30.30
2018-09-10T10:13:50.025Z,30.20
2018-09-10T10:16:18.565Z,30.80
2018-09-10T10:18:47.096Z,31.30
2018-09-10T10:21:15.589Z,31.50
2018-09-10T10:23:44.090Z,31.40
2018-09-10T10:26:12.604Z,30.90
2018-09-10T10:28:41.119Z,30.90
2018-09-10T10:31:09.609Z,30.30
2018-09-10T10:33:38.168Z,31.30
2018-09-10T10:36:06.317Z,32.20
2018-09-10T10:38:34.825Z,33.90
2018-09-10T10:41:03.317Z,35.90
2018-09-10T10:43:31.849Z,37.40
2018-09-10T10:46:00.333Z,37.90
2018-09-10T10:48:28.829Z,38.70
2018-09-10T10:50:57.313Z,40.20
2018-09-10T10:53:25.857Z,41.40
2018-09-10T10:55:54.370Z,41.60
2018-09-10T10:58:22.993Z,40.50
2018-09-10T11:00:51.520Z,39.60
2018-09-10T11:03:20.172Z,39.00
2018-09-10T11:05:48.723Z,39.80
2018-09-10T11:08:17.306Z,40.70
2018-09-10T11:10:45.928Z,40.90
2018-09-10T11:13:14.423Z,41.30
2018-09-10T11:15:42.972Z,41.20
2018-09-10T11:18:11.469Z,39.40
2018-09-10T11:20:39.974Z,37.80
2018-09-10T11:23:08.453Z,35.70
2018-09-10T11:25:37.020Z,34.50
2018-09-10T11:28:05.565Z,33.60
2018-09-10T11:30:34.077Z,33.60
2018-09-10T11:33:02.633Z,33.50
2018-09-10T11:35:31.337Z,33.20
2018-09-10T11:37:59.916Z,34.40
2018-09-10T11:40:28.406Z,35.80
2018-09-10T11:42:56.933Z,37.20
2018-09-10T11:45:25.609Z,38.10
2018-09-10T11:47:54.125Z,38.70
2018-09-10T11:50:22.633Z,38.10
2018-09-10T11:52:51.180Z,37.30
2018-09-10T11:55:19.665Z,36.60
2018-09-10T11:57:48.171Z,36.30
2018-09-10T12:00:16.717Z,35.30
2018-09-10T12:02:45.270Z,34.40
2018-09-10T12:05:13.785Z,33.60
2018-09-10T12:07:42.297Z,33.00
2018-09-10T12:10:10.801Z,33.00
2018-09-10T12:12:39.347Z,33.20
2018-09-10T12:15:08.025Z,33.50
2018-09-10T12:17:36.543Z,33.80
2018-09-10T12:20:05.461Z,34.00
2018-09-10T12:22:34.092Z,33.90
2018-09-10T12:25:02.649Z,33.30
2018-09-10T12:27:31.173Z,33.30
2018-09-10T12:29:59.788Z,34.00
2018-09-10T12:32:28.381Z,34.60
2018-09-10T12:34:59.681Z,35.50
2018-09-10T12:37:28.165Z,36.40
2018-09-10T12:39:56.778Z,36.10
2018-09-10T12:42:25.470Z,36.20
2018-09-10T12:44:54.122Z,34.90
2018-09-10T12:47:22.641Z,35.30
2018-09-10T12:49:51.295Z,35.30
2018-09-10T12:52:20.226Z,35.50
2018-09-10T12:54:48.749Z,35.60
2018-09-10T12:57:17.385Z,35.50
2018-09-10T12:59:45.997Z,35.20
2018-09-10T13:02:14.535Z,35.20
2018-09-10T13:04:43.070Z,34.20
2018-09-10T13:07:11.669Z,33.20
2018-09-10T13:09:40.326Z,32.40
2018-09-10T13:12:08.831Z,31.90
2018-09-10T13:14:37.341Z,31.80
2018-09-10T13:17:05.825Z,32.30
2018-09-10T13:19:34.332Z,32.50
2018-09-10T13:22:02.860Z,32.30
2018-09-10T13:24:31.397Z,32.00
2018-09-10T13:26:59.928Z,32.00
2018-09-10T13:29:28.456Z,32.20
2018-09-10T13:31:57.045Z,32.20
2018-09-10T13:34:25.561Z,32.40
2018-09-10T13:36:54.504Z,32.90
2018-09-10T13:39:23.115Z,32.50
2018-09-10T13:41:51.749Z,32.00
2018-09-10T13:44:20.287Z,32.10
2018-09-10T13:46:48.917Z,32.40
2018-09-10T13:49:17.577Z,32.30
2018-09-10T13:51:46.181Z,31.90
2018-09-10T13:54:14.753Z,31.60
2018-09-10T13:56:43.238Z,31.00
2018-09-10T13:59:11.960Z,30.60
2018-09-10T14:01:40.478Z,30.40
2018-09-10T14:04:09.005Z,30.20
2018-09-10T14:06:37.550Z,30.00
2018-09-10T14:09:06.848Z,30.00
2018-09-10T14:11:35.950Z,29.80
2018-09-10T14:14:04.904Z,29.80
2018-09-10T14:16:33.474Z,29.80
2018-09-10T14:19:02.124Z,29.90
2018-09-10T14:21:30.692Z,29.80
2018-09-10T14:23:59.221Z,29.60
2018-09-10T14:26:27.872Z,29.60
2018-09-10T14:28:56.661Z,29.60
2018-09-10T14:31:25.173Z,29.80
2018-09-10T14:33:53.698Z,29.90
2018-09-10T14:36:22.324Z,29.90
2018-09-10T14:38:50.897Z,29.70
2018-09-10T14:41:19.408Z,29.70
2018-09-10T14:43:47.932Z,29.60
2018-09-10T14:46:16.441Z,29.40
2018-09-10T14:48:45.090Z,29.20
2018-09-10T14:51:13.653Z,29.00
2018-09-10T14:53:42.179Z,28.80
2018-09-10T14:56:10.769Z,28.60
2018-09-10T14:58:39.446Z,28.50
2018-09-10T15:01:08.078Z,28.30
2018-09-10T15:03:36.585Z,28.20
2018-09-10T15:06:05.277Z,28.00
2018-09-10T15:08:33.937Z,28.00
2018-09-10T15:11:02.471Z,27.90
2018-09-10T15:13:30.972Z,27.90
2018-09-10T15:15:59.496Z,27.80
2018-09-10T15:18:28.129Z,27.80
2018-09-10T15:20:56.545Z,27.80
2018-09-10T15:23:25.176Z,27.80
2018-09-10T15:25:53.749Z,27.70
2018-09-10T15:28:22.425Z,27.60
2018-09-10T15:30:50.957Z,27.60
2018-09-10T15:33:19.444Z,27.60
2018-09-10T15:35:47.981Z,27.50
2018-09-10T15:38:16.498Z,27.50
2018-09-10T15:40:45.163Z,27.40
2018-09-10T15:43:13.753Z,27.40
2018-09-10T15:45:42.285Z,27.30
2018-09-10T15:48:10.981Z,27.30
2018-09-10T15:50:39.498Z,27.30
2018-09-10T15:53:08.057Z,27.20
2018-09-10T15:55:36.536Z,27.10
2018-09-10T15:58:05.153Z,27.00
2018-09-10T16:00:33.901Z,27.00
2018-09-10T16:03:02.417Z,26.90
2018-09-10T16:05:30.911Z,26.90
2018-09-10T16:07:59.478Z,26.80
2018-09-10T16:10:27.973Z,26.80
2018-09-10T16:12:56.489Z,26.70
2018-09-10T16:15:24.978Z,26.70
2018-09-10T16:17:53.501Z,26.70
2018-09-10T16:20:22.054Z,26.60
2018-09-10T16:22:50.592Z,26.60
2018-09-10T16:25:19.160Z,26.50
2018-09-10T16:27:47.673Z,26.60
2018-09-10T16:30:16.161Z,26.50
2018-09-10T16:32:44.824Z,26.40
2018-09-10T16:35:13.361Z,26.40
2018-09-10T16:37:41.885Z,26.40
2018-09-10T16:40:10.626Z,26.40
2018-09-10T16:42:39.154Z,26.30
2018-09-10T16:45:07.773Z,26.30
2018-09-10T16:47:36.423Z,26.20
2018-09-10T16:50:05.226Z,26.20
2018-09-10T16:52:33.741Z,26.20
2018-09-10T16:55:02.471Z,26.20
2018-09-10T16:57:31.025Z,26.10
2018-09-10T16:59:59.924Z,26.10
2018-09-10T17:02:28.428Z,26.10
2018-09-10T17:04:57.016Z,26.00
2018-09-10T17:07:25.621Z,26.00
2018-09-10T17:09:54.124Z,25.90
2018-09-10T17:12:22.647Z,25.90
2018-09-10T17:14:51.645Z,25.90
2018-09-10T17:17:20.137Z,25.80
2018-09-10T17:19:48.934Z,25.80
2018-09-10T17:22:17.432Z,25.80
2018-09-10T17:24:46.313Z,25.70
2018-09-10T17:27:14.861Z,25.60
2018-09-10T17:29:43.442Z,25.60
2018-09-10T17:32:11.941Z,25.60
2018-09-10T17:34:40.597Z,25.50
2018-09-10T17:37:09.377Z,25.40
2018-09-10T17:39:37.920Z,25.30
2018-09-10T17:42:06.459Z,25.20
2018-09-10T17:44:35.081Z,25.20
2018-09-10T17:47:03.701Z,25.10
2018-09-10T17:49:32.582Z,25.00
2018-09-10T17:52:01.268Z,25.00
2018-09-10T17:54:29.877Z,24.90
2018-09-10T17:56:58.533Z,24.80
2018-09-10T17:59:27.069Z,24.80
2018-09-10T18:01:55.833Z,24.70
2018-09-10T18:04:24.453Z,24.70
2018-09-10T18:06:53.001Z,24.60
2018-09-10T18:09:21.534Z,24.60
2018-09-10T18:11:50.411Z,24.50
2018-09-10T18:14:19.036Z,24.50
2018-09-10T18:16:47.820Z,24.40
2018-09-10T18:19:17.037Z,24.40
2018-09-10T18:21:45.549Z,24.30
2018-09-10T18:24:14.065Z,24.30
2018-09-10T18:26:42.627Z,24.20
2018-09-10T18:29:11.757Z,24.10
2018-09-10T18:31:40.257Z,24.10
2018-09-10T18:34:09.429Z,24.00
2018-09-10T18:36:37.922Z,24.00
2018-09-10T18:39:09.313Z,23.90
2018-09-10T18:41:37.913Z,23.90
2018-09-10T18:44:06.746Z,23.90
2018-09-10T18:46:35.649Z,23.80
2018-09-10T18:49:04.324Z,23.80
2018-09-10T18:51:32.773Z,23.70
2018-09-10T18:54:01.264Z,23.70
2018-09-10T18:56:30.540Z,23.70
2018-09-10T18:58:59.122Z,23.60
2018-09-10T19:01:27.853Z,23.60
2018-09-10T19:03:56.317Z,23.60
2018-09-10T19:06:24.830Z,23.60
2018-09-10T19:08:53.373Z,23.60
2018-09-10T19:11:22.325Z,23.60
2018-09-10T19:13:50.985Z,23.50
2018-09-10T19:16:19.546Z,23.50
2018-09-10T19:18:48.078Z,23.50
2018-09-10T19:21:16.601Z,23.60
2018-09-10T19:23:45.085Z,23.60
2018-09-10T19:26:13.673Z,23.50
2018-09-10T19:28:42.158Z,23.50
2018-09-10T19:31:10.690Z,23.40
2018-09-10T19:33:39.181Z,23.40
2018-09-10T19:36:07.709Z,23.40
2018-09-10T19:38:36.305Z,23.30
2018-09-10T19:41:04.853Z,23.30
2018-09-10T19:43:33.337Z,23.30
2018-09-10T19:46:01.929Z,23.20
2018-09-10T19:48:30.821Z,23.20
2018-09-10T19:50:59.655Z,23.20
2018-09-10T19:53:28.497Z,23.20
2018-09-10T19:55:57.016Z,23.20
2018-09-10T19:58:25.755Z,23.10
2018-09-10T20:00:54.377Z,23.10
2018-09-10T20:03:22.865Z,23.10
2018-09-10T20:05:51.372Z,23.00
2018-09-10T20:08:19.931Z,23.00
2018-09-10T20:10:48.472Z,23.00
2018-09-10T20:13:16.990Z,22.90
2018-09-10T20:15:45.732Z,22.80
2018-09-10T20:18:14.337Z,22.70
2018-09-10T20:20:42.880Z,22.70
2018-09-10T20:23:11.410Z,22.70
2018-09-10T20:25:39.996Z,22.70
2018-09-10T20:28:08.680Z,22.60
2018-09-10T20:30:37.382Z,22.60
2018-09-10T20:33:05.923Z,22.50
2018-09-10T20:35:34.664Z,22.50
2018-09-10T20:38:03.325Z,22.40
2018-09-10T20:40:32.033Z,22.30
2018-09-10T20:43:00.536Z,22.30
2018-09-10T20:45:29.220Z,22.20
2018-09-10T20:47:57.892Z,22.20
2018-09-10T20:50:26.441Z,22.10
2018-09-10T20:52:55.078Z,22.10
2018-09-10T20:55:23.605Z,22.00
2018-09-10T20:57:52.273Z,22.00
2018-09-10T21:00:20.871Z,21.90
2018-09-10T21:02:49.708Z,21.90
2018-09-10T21:05:18.333Z,21.90
2018-09-10T21:07:46.948Z,21.90
2018-09-10T21:10:15.437Z,21.80
2018-09-10T21:12:44.017Z,21.70
2018-09-10T21:15:12.651Z,21.60
2018-09-10T21:17:41.149Z,21.60
2018-09-10T21:20:09.671Z,21.50
2018-09-10T21:22:38.428Z,21.50
2018-09-10T21:25:06.952Z,21.40
2018-09-10T21:27:35.527Z,21.50
2018-09-10T21:30:04.221Z,21.40
2018-09-10T21:32:32.736Z,21.40
2018-09-10T21:35:01.221Z,21.40
2018-09-10T21:37:29.728Z,21.40
2018-09-10T21:39:58.208Z,21.30
2018-09-10T21:42:26.741Z,21.30
2018-09-10T21:44:55.225Z,21.20
2018-09-10T21:47:23.756Z,21.20
2018-09-10T21:49:52.457Z,21.20
2018-09-10T21:52:20.964Z,21.10
2018-09-10T21:54:49.477Z,21.10
2018-09-10T21:57:18.080Z,21.10
2018-09-10T21:59:46.576Z,21.10
2018-09-10T22:02:15.233Z,21.00
2018-09-10T22:04:44.109Z,21.00
2018-09-10T22:07:12.641Z,20.90
2018-09-10T22:09:41.201Z,20.90
2018-09-10T22:12:09.955Z,20.90
2018-09-10T22:14:39.045Z,20.80
2018-09-10T22:17:07.781Z,20.80
2018-09-10T22:19:36.460Z,20.80
2018-09-10T22:22:05.040Z,20.70
2018-09-10T22:24:33.598Z,20.70
2018-09-10T22:27:02.191Z,20.70
2018-09-10T22:29:30.981Z,20.60
2018-09-10T22:31:59.688Z,20.60
2018-09-10T22:34:28.189Z,20.50
2018-09-10T22:36:56.941Z,20.50
2018-09-10T22:39:25.553Z,20.50
2018-09-10T22:41:54.045Z,20.40
2018-09-10T22:44:22.793Z,20.40
2018-09-10T22:46:51.428Z,20.30
2018-09-10T22:49:20.044Z,20.30
2018-09-10T22:51:48.597Z,20.20
2018-09-10T22:54:17.168Z,20.20
2018-09-10T22:56:45.789Z,20.20
2018-09-10T22:59:14.349Z,20.10
2018-09-10T23:01:42.989Z,20.10
2018-09-10T23:04:11.905Z,20.10
2018-09-10T23:06:40.395Z,20.00
2018-09-10T23:09:09.720Z,19.90
2018-09-10T23:11:38.583Z,19.90
2018-09-10T23:14:07.339Z,19.90
2018-09-10T23:16:35.919Z,19.90
2018-09-10T23:19:04.817Z,19.80
2018-09-10T23:21:33.369Z,19.80
2018-09-10T23:24:01.872Z,19.70
2018-09-10T23:26:30.380Z,19.70
2018-09-10T23:28:58.877Z,19.70
2018-09-10T23:31:27.397Z,19.60
2018-09-10T23:33:55.883Z,19.50
2018-09-10T23:36:24.396Z,19.50
2018-09-10T23:38:52.901Z,19.40
2018-09-10T23:41:21.413Z,19.30
2018-09-10T23:43:49.963Z,19.30
2018-09-10T23:46:18.956Z,19.30
2018-09-10T23:48:47.457Z,19.20
2018-09-10T23:51:16.256Z,19.20
2018-09-10T23:53:45.233Z,19.20
2018-09-10T23:56:13.761Z,19.20
2018-09-10T23:58:42.354Z,19.20
